createdAt,value
2022-12-03T00:02:21.500Z,104.10
2022-12-03T00:04:48.238Z,102.90
2022-12-03T00:07:14.952Z,94.80
2022-12-03T00:09:41.592Z,95.87
2022-12-03T00:12:08.752Z,98.53
2022-12-03T00:14:37.810Z,95.67
2022-12-03T00:17:08.067Z,91.40
2022-12-03T00:19:34.909Z,83.60
2022-12-03T00:22:01.670Z,97.60
2022-12-03T00:24:28.304Z,92.00
2022-12-03T00:26:55.152Z,93.83
2022-12-03T00:29:21.842Z,93.97
2022-12-03T00:31:48.537Z,90.47
2022-12-03T00:34:15.223Z,99.87
2022-12-03T00:36:41.903Z,103.63
2022-12-03T00:39:08.540Z,96.60
2022-12-03T00:41:36.145Z,90.63
2022-12-03T00:44:03.367Z,94.80
2022-12-03T00:46:30.100Z,100.47
2022-12-03T00:48:56.787Z,100.33
2022-12-03T00:51:23.604Z,93.63
2022-12-03T00:53:50.325Z,97.33
2022-12-03T00:56:17.091Z,100.07
2022-12-03T00:58:43.791Z,96.37
2022-12-03T01:01:10.509Z,97.70
2022-12-03T01:03:37.836Z,99.13
2022-12-03T01:06:04.697Z,96.83
2022-12-03T01:08:31.368Z,100.77
2022-12-03T01:10:58.010Z,96.77
2022-12-03T01:13:24.685Z,97.50
2022-12-03T01:15:51.479Z,96.87
2022-12-03T01:18:18.164Z,102.80
2022-12-03T01:20:44.945Z,91.23
2022-12-03T01:23:13.045Z,99.00
2022-12-03T01:25:39.740Z,102.97
2022-12-03T01:28:06.383Z,96.53
2022-12-03T01:30:53.439Z,86.70
2022-12-03T01:33:20.230Z,107.00
2022-12-03T01:35:46.851Z,89.40
2022-12-03T01:38:14.172Z,92.77
2022-12-03T01:40:41.045Z,94.03
2022-12-03T01:43:07.721Z,100.20
2022-12-03T01:45:34.356Z,99.50
2022-12-03T01:48:01.175Z,96.07
2022-12-03T01:50:33.065Z,91.23
2022-12-03T01:53:03.061Z,96.40
2022-12-03T01:55:30.440Z,92.67
2022-12-03T01:58:00.735Z,85.20
2022-12-03T02:00:29.819Z,95.30
2022-12-03T02:03:12.230Z,94.90
2022-12-03T02:05:39.085Z,91.33
2022-12-03T02:08:32.229Z,99.80
2022-12-03T02:11:06.499Z,97.90
2022-12-03T02:13:33.415Z,84.33
2022-12-03T02:16:00.152Z,95.27
2022-12-03T02:18:27.008Z,88.57
2022-12-03T02:21:10.207Z,98.20
2022-12-03T02:24:12.688Z,86.67
2022-12-03T02:26:39.446Z,91.70
2022-12-03T02:29:06.128Z,84.63
2022-12-03T02:31:33.165Z,92.90
2022-12-03T02:33:59.882Z,91.60
2022-12-03T02:36:27.067Z,86.00
2022-12-03T02:38:53.822Z,88.20
2022-12-03T02:41:40.089Z,89.13
2022-12-03T02:44:08.194Z,91.10
2022-12-03T02:46:35.776Z,93.43
2022-12-03T02:49:05.184Z,82.00
2022-12-03T02:51:33.600Z,90.37
2022-12-03T02:54:00.808Z,88.00
2022-12-03T02:56:31.095Z,89.37
2022-12-03T02:59:02.999Z,87.20
2022-12-03T03:01:29.918Z,79.83
2022-12-03T03:03:57.488Z,77.80
2022-12-03T03:06:24.765Z,81.20
2022-12-03T03:08:52.234Z,81.40
2022-12-03T03:11:18.975Z,77.63
2022-12-03T03:13:46.272Z,87.07
2022-12-03T03:16:13.063Z,83.70
2022-12-03T03:18:40.037Z,80.77
2022-12-03T03:21:06.930Z,85.63
2022-12-03T03:23:33.747Z,82.17
2022-12-03T03:26:06.000Z,81.00
2022-12-03T03:28:37.500Z,78.77
2022-12-03T03:31:07.018Z,81.00
2022-12-03T03:33:34.990Z,82.43
2022-12-03T03:36:02.260Z,79.87
2022-12-03T03:38:30.236Z,84.60
2022-12-03T03:41:00.118Z,78.60
2022-12-03T03:43:27.980Z,80.03
2022-12-03T03:45:55.535Z,78.30
2022-12-03T03:48:22.867Z,77.17
2022-12-03T03:50:50.882Z,74.47
2022-12-03T03:53:19.164Z,81.73
2022-12-03T03:55:46.186Z,77.00
2022-12-03T03:58:13.901Z,73.47
2022-12-03T04:00:44.541Z,76.63
2022-12-03T04:03:11.583Z,77.00
2022-12-03T04:05:38.832Z,71.67
2022-12-03T04:08:05.698Z,78.27
2022-12-03T04:10:50.947Z,77.83
2022-12-03T04:13:17.705Z,77.17
2022-12-03T04:15:44.349Z,74.83
2022-12-03T04:18:29.588Z,77.83
2022-12-03T04:21:16.204Z,76.67
2022-12-03T04:23:42.949Z,72.70
2022-12-03T04:26:28.328Z,70.17
2022-12-03T04:28:55.357Z,72.33
2022-12-03T04:31:40.621Z,72.17
2022-12-03T04:34:27.106Z,71.33
2022-12-03T04:36:55.216Z,77.90
2022-12-03T04:39:21.926Z,68.77
2022-12-03T04:41:48.617Z,72.37
2022-12-03T04:44:33.119Z,76.33
2022-12-03T04:47:01.031Z,82.97
2022-12-03T04:49:27.843Z,77.20
2022-12-03T04:51:54.534Z,76.60
2022-12-03T04:54:21.508Z,75.13
2022-12-03T04:56:48.291Z,75.80
2022-12-03T04:59:16.419Z,75.53
2022-12-03T05:01:44.383Z,81.30
2022-12-03T05:04:12.752Z,82.83
2022-12-03T05:06:39.784Z,80.13
2022-12-03T05:09:06.619Z,78.40
2022-12-03T05:11:33.605Z,75.80
2022-12-03T05:14:00.256Z,82.30
2022-12-03T05:16:28.770Z,81.43
2022-12-03T05:18:55.436Z,81.47
2022-12-03T05:21:22.192Z,86.87
2022-12-03T05:23:49.459Z,79.47
2022-12-03T05:26:16.371Z,78.33
2022-12-03T05:28:43.000Z,75.57
2022-12-03T05:31:09.959Z,75.13
2022-12-03T05:33:42.452Z,76.00
2022-12-03T05:36:10.846Z,86.27
2022-12-03T05:38:37.608Z,79.83
2022-12-03T05:41:25.146Z,79.60
2022-12-03T05:43:51.880Z,78.10
2022-12-03T05:46:18.846Z,78.37
2022-12-03T05:48:45.953Z,74.87
2022-12-03T05:51:12.683Z,70.70
2022-12-03T05:53:39.375Z,73.07
2022-12-03T05:56:06.462Z,79.93
2022-12-03T05:58:33.259Z,74.10
2022-12-03T06:00:59.920Z,83.57
2022-12-03T06:03:27.188Z,77.77
2022-12-03T06:05:53.968Z,77.07
2022-12-03T06:08:20.662Z,78.70
2022-12-03T06:10:47.411Z,86.07
2022-12-03T06:13:14.108Z,79.57
2022-12-03T06:15:43.901Z,80.20
2022-12-03T06:18:11.767Z,74.17
2022-12-03T06:20:38.467Z,80.17
2022-12-03T06:23:05.355Z,82.00
2022-12-03T06:25:32.017Z,77.63
2022-12-03T06:27:58.676Z,84.27
2022-12-03T06:30:25.279Z,74.80
2022-12-03T06:32:52.805Z,82.00
2022-12-03T06:35:19.535Z,88.07
2022-12-03T06:37:49.053Z,83.73
2022-12-03T06:40:16.721Z,83.07
2022-12-03T06:42:43.805Z,93.90
2022-12-03T06:45:12.005Z,87.63
2022-12-03T06:47:38.687Z,83.67
2022-12-03T06:50:07.372Z,90.57
2022-12-03T06:52:34.951Z,85.77
2022-12-03T06:55:01.693Z,88.83
2022-12-03T06:57:28.496Z,88.23
2022-12-03T06:59:55.607Z,86.17
2022-12-03T07:02:22.556Z,81.43
2022-12-03T07:04:49.239Z,82.73
2022-12-03T07:07:15.962Z,86.87
2022-12-03T07:09:43.279Z,91.80
2022-12-03T07:12:10.043Z,91.70
2022-12-03T07:14:37.132Z,97.23
2022-12-03T07:17:03.803Z,90.43
2022-12-03T07:19:32.862Z,87.13
2022-12-03T07:22:00.345Z,88.10
2022-12-03T07:24:27.567Z,88.40
2022-12-03T07:26:54.553Z,82.93
2022-12-03T07:29:21.369Z,92.23
2022-12-03T07:31:48.321Z,86.63
2022-12-03T07:34:15.084Z,90.73
2022-12-03T07:36:41.869Z,90.83
2022-12-03T07:39:08.573Z,86.97
2022-12-03T07:41:35.215Z,100.97
2022-12-03T07:44:01.878Z,90.27
2022-12-03T07:46:28.727Z,88.07
2022-12-03T07:48:55.408Z,89.50
2022-12-03T07:51:24.183Z,95.00
2022-12-03T07:53:52.868Z,87.07
2022-12-03T07:56:19.491Z,83.53
2022-12-03T07:58:46.202Z,86.83
2022-12-03T08:01:13.206Z,92.63
2022-12-03T08:03:40.143Z,92.67
2022-12-03T08:06:06.967Z,87.87
2022-12-03T08:08:33.652Z,94.33
2022-12-03T08:11:02.127Z,89.10
2022-12-03T08:13:28.855Z,88.73
2022-12-03T08:16:00.201Z,94.83
2022-12-03T08:18:28.812Z,95.20
2022-12-03T08:20:55.477Z,86.40
2022-12-03T08:23:25.635Z,82.47
2022-12-03T08:25:53.364Z,87.53
2022-12-03T08:28:26.697Z,89.03
2022-12-03T08:31:12.632Z,86.67
2022-12-03T08:33:41.773Z,93.20
2022-12-03T08:36:31.189Z,87.67
2022-12-03T08:39:18.546Z,83.10
2022-12-03T08:42:05.956Z,90.17
2022-12-03T08:44:40.869Z,90.60
2022-12-03T08:47:19.525Z,89.47
2022-12-03T08:50:01.277Z,78.90
2022-12-03T08:52:34.134Z,85.60
2022-12-03T08:55:27.944Z,84.60
2022-12-03T08:57:58.610Z,86.03
2022-12-03T09:00:25.582Z,86.40
2022-12-03T09:02:59.395Z,86.93
2022-12-03T09:05:32.272Z,86.27
2022-12-03T09:07:59.475Z,85.57
2022-12-03T09:10:26.173Z,79.10
2022-12-03T09:12:53.195Z,89.03
2022-12-03T09:15:20.030Z,81.73
2022-12-03T09:17:49.977Z,88.83
2022-12-03T09:20:16.795Z,83.50
2022-12-03T09:22:43.591Z,88.03
2022-12-03T09:25:10.409Z,86.60
2022-12-03T09:27:37.050Z,85.60
2022-12-03T09:30:05.385Z,85.03
2022-12-03T09:32:32.191Z,85.87
2022-12-03T09:34:58.974Z,82.17
2022-12-03T09:37:25.753Z,82.93
2022-12-03T09:39:52.428Z,90.17
2022-12-03T09:42:19.214Z,90.33
2022-12-03T09:44:46.083Z,89.30
2022-12-03T09:47:12.835Z,82.17
2022-12-03T09:49:40.834Z,85.97
2022-12-03T09:52:08.083Z,85.83
2022-12-03T09:54:35.322Z,91.00
2022-12-03T09:57:04.086Z,81.77
2022-12-03T09:59:34.282Z,88.37
2022-12-03T10:02:02.742Z,82.77
2022-12-03T10:04:30.238Z,88.53
2022-12-03T10:06:58.798Z,79.83
2022-12-03T10:09:30.288Z,80.57
2022-12-03T10:11:58.980Z,81.90
2022-12-03T10:14:26.421Z,81.13
2022-12-03T10:16:53.197Z,79.60
2022-12-03T10:19:29.284Z,83.07
2022-12-03T10:21:56.013Z,77.07
2022-12-03T10:24:32.517Z,84.67
2022-12-03T10:27:21.622Z,80.37
2022-12-03T10:30:00.937Z,81.30
2022-12-03T10:32:39.740Z,83.17
2022-12-03T10:35:14.203Z,85.90
2022-12-03T10:38:02.484Z,83.33
2022-12-03T10:40:35.689Z,77.27
2022-12-03T10:43:25.508Z,94.63
2022-12-03T10:46:12.714Z,81.30
2022-12-03T10:48:39.474Z,79.37
2022-12-03T10:51:21.007Z,86.60
2022-12-03T10:53:49.668Z,83.73
2022-12-03T10:56:26.117Z,86.10
2022-12-03T10:58:53.160Z,91.07
2022-12-03T11:01:23.553Z,85.50
2022-12-03T11:03:51.269Z,85.30
2022-12-03T11:06:21.052Z,80.60
2022-12-03T11:08:58.523Z,82.40
2022-12-03T11:11:31.071Z,83.87
2022-12-03T11:14:02.737Z,88.90
2022-12-03T11:16:41.776Z,85.93
2022-12-03T11:19:47.105Z,76.13
2022-12-03T11:22:13.961Z,83.93
2022-12-03T11:24:40.885Z,84.43
2022-12-03T11:27:18.688Z,83.83
2022-12-03T11:29:59.064Z,82.03
2022-12-03T11:32:37.719Z,75.07
2022-12-03T11:35:34.898Z,79.60
2022-12-03T11:38:40.788Z,79.40
2022-12-03T11:41:19.682Z,82.73
2022-12-03T11:43:52.468Z,89.47
2022-12-03T11:46:21.470Z,81.27
2022-12-03T11:48:53.084Z,79.00
2022-12-03T11:51:24.637Z,82.40
2022-12-03T11:53:53.923Z,74.47
2022-12-03T11:56:24.929Z,75.10
2022-12-03T11:59:03.734Z,79.43
2022-12-03T12:01:40.070Z,73.13
2022-12-03T12:04:31.220Z,81.50
2022-12-03T12:06:58.138Z,85.97
2022-12-03T12:09:55.156Z,74.40
2022-12-03T12:12:45.617Z,77.17
2022-12-03T12:15:43.020Z,84.73
2022-12-03T12:18:45.604Z,79.70
2022-12-03T12:21:47.660Z,74.90
2022-12-03T12:24:45.666Z,81.47
2022-12-03T12:27:45.001Z,82.43
2022-12-03T12:30:20.513Z,76.70
2022-12-03T12:32:53.383Z,80.10
2022-12-03T12:35:27.313Z,80.80
2022-12-03T12:38:17.134Z,76.47
2022-12-03T12:40:49.227Z,86.33
2022-12-03T12:43:25.047Z,79.10
2022-12-03T12:45:57.019Z,82.53
2022-12-03T12:48:34.357Z,80.50
2022-12-03T12:51:18.708Z,85.67
2022-12-03T12:53:45.872Z,82.03
2022-12-03T12:56:29.962Z,80.40
2022-12-03T12:59:06.413Z,83.17
2022-12-03T13:01:35.484Z,78.77
2022-12-03T13:04:10.254Z,82.57
2022-12-03T13:06:37.097Z,85.10
2022-12-03T13:09:03.877Z,81.50
2022-12-03T13:11:44.106Z,81.40
2022-12-03T13:14:23.798Z,83.07
2022-12-03T13:16:54.610Z,81.57
2022-12-03T13:19:30.349Z,78.30
2022-12-03T13:22:01.891Z,80.00
2022-12-03T13:24:38.137Z,76.67
2022-12-03T13:27:14.008Z,87.23
2022-12-03T13:29:40.652Z,81.00
2022-12-03T13:32:33.169Z,86.97
2022-12-03T13:35:31.356Z,79.53
2022-12-03T13:37:59.156Z,87.30
2022-12-03T13:40:31.346Z,85.27
2022-12-03T13:42:59.357Z,77.53
2022-12-03T13:45:31.896Z,82.27
2022-12-03T13:48:02.764Z,83.80
2022-12-03T13:50:46.114Z,83.80
2022-12-03T13:53:27.853Z,87.47
2022-12-03T13:56:14.555Z,86.83
2022-12-03T13:58:41.381Z,79.83
2022-12-03T14:01:08.039Z,84.20
2022-12-03T14:03:35.350Z,87.60
2022-12-03T14:06:02.062Z,83.87
2022-12-03T14:08:29.847Z,90.10
2022-12-03T14:11:00.354Z,90.97
2022-12-03T14:13:27.510Z,93.23
2022-12-03T14:15:54.173Z,92.80
2022-12-03T14:18:20.854Z,86.27
2022-12-03T14:20:48.233Z,85.37
2022-12-03T14:23:15.423Z,77.10
2022-12-03T14:25:43.921Z,95.53
2022-12-03T14:28:11.090Z,87.10
2022-12-03T14:30:37.785Z,82.27
2022-12-03T14:33:04.566Z,84.00
2022-12-03T14:35:31.206Z,81.33
2022-12-03T14:37:57.862Z,93.20
2022-12-03T14:40:24.528Z,89.00
2022-12-03T14:42:51.189Z,83.57
2022-12-03T14:45:17.857Z,90.47
2022-12-03T14:47:44.628Z,80.63
2022-12-03T14:50:14.338Z,91.83
2022-12-03T14:52:41.454Z,86.93
2022-12-03T14:55:08.757Z,97.90
2022-12-03T14:57:36.972Z,95.87
2022-12-03T15:00:06.261Z,86.03
2022-12-03T15:02:33.210Z,90.40
2022-12-03T15:04:59.972Z,82.73
2022-12-03T15:07:26.786Z,90.63
2022-12-03T15:09:53.847Z,85.23
2022-12-03T15:12:20.849Z,96.90
2022-12-03T15:14:47.563Z,92.83
2022-12-03T15:17:14.493Z,86.77
2022-12-03T15:19:41.616Z,78.03
2022-12-03T15:22:11.537Z,90.77
2022-12-03T15:24:38.358Z,90.07
2022-12-03T15:27:05.087Z,87.53
2022-12-03T15:29:32.897Z,81.83
2022-12-03T15:32:00.918Z,85.30
2022-12-03T15:34:27.714Z,95.70
2022-12-03T15:36:54.604Z,78.33
2022-12-03T15:39:22.123Z,87.30
2022-12-03T15:41:49.023Z,78.47
2022-12-03T15:44:15.943Z,82.40
2022-12-03T15:46:42.729Z,81.53
2022-12-03T15:49:09.495Z,81.40
2022-12-03T15:51:36.168Z,83.80
2022-12-03T15:54:02.971Z,86.17
2022-12-03T15:56:29.634Z,84.37
2022-12-03T15:58:57.111Z,91.27
2022-12-03T16:01:23.974Z,92.67
2022-12-03T16:03:50.739Z,81.87
2022-12-03T16:06:19.528Z,83.60
2022-12-03T16:08:46.299Z,82.03
2022-12-03T16:11:12.977Z,87.93
2022-12-03T16:13:39.683Z,80.43
2022-12-03T16:16:06.656Z,76.97
2022-12-03T16:18:33.564Z,81.10
2022-12-03T16:21:00.455Z,81.10
2022-12-03T16:23:27.293Z,82.60
2022-12-03T16:25:53.906Z,79.97
2022-12-03T16:28:20.663Z,85.33
2022-12-03T16:30:47.394Z,79.70
2022-12-03T16:33:14.059Z,82.73
2022-12-03T16:35:40.720Z,76.03
2022-12-03T16:38:10.195Z,78.90
2022-12-03T16:40:36.852Z,81.03
2022-12-03T16:43:04.822Z,85.37
2022-12-03T16:46:03.638Z,82.20
2022-12-03T16:48:30.456Z,77.77
2022-12-03T16:50:59.141Z,80.40
2022-12-03T16:53:26.064Z,88.57
2022-12-03T16:55:52.803Z,80.47
2022-12-03T16:58:21.226Z,76.63
2022-12-03T17:00:49.001Z,78.63
2022-12-03T17:03:17.762Z,77.33
2022-12-03T17:05:45.719Z,77.53
2022-12-03T17:08:13.425Z,81.83
2022-12-03T17:10:40.338Z,90.33
2022-12-03T17:13:09.972Z,83.33
2022-12-03T17:15:37.922Z,73.50
2022-12-03T17:18:05.174Z,82.10
2022-12-03T17:20:32.793Z,79.83
2022-12-03T17:22:59.947Z,82.53
2022-12-03T17:25:27.855Z,79.10
2022-12-03T17:27:54.711Z,89.80
2022-12-03T17:30:21.550Z,78.47
2022-12-03T17:32:50.228Z,78.03
2022-12-03T17:35:17.513Z,84.50
2022-12-03T17:37:44.308Z,77.17
2022-12-03T17:40:13.837Z,84.13
2022-12-03T17:42:40.500Z,82.43
2022-12-03T17:45:08.160Z,80.30
2022-12-03T17:47:34.893Z,76.07
2022-12-03T17:50:01.903Z,78.13
2022-12-03T17:52:28.640Z,82.27
2022-12-03T17:55:10.802Z,85.50
2022-12-03T17:57:38.815Z,81.57
2022-12-03T18:00:06.491Z,78.83
2022-12-03T18:02:38.858Z,91.07
2022-12-03T18:05:06.272Z,81.00
2022-12-03T18:07:33.128Z,81.73
2022-12-03T18:10:00.035Z,77.63
2022-12-03T18:12:26.908Z,74.13
2022-12-03T18:14:53.818Z,79.30
2022-12-03T18:17:20.541Z,75.97
2022-12-03T18:19:47.310Z,81.13
2022-12-03T18:22:14.237Z,83.87
2022-12-03T18:24:41.212Z,79.27
2022-12-03T18:27:08.178Z,83.53
2022-12-03T18:29:35.020Z,80.33
2022-12-03T18:32:01.950Z,85.30
2022-12-03T18:34:28.847Z,83.17
2022-12-03T18:36:55.692Z,87.37
2022-12-03T18:39:31.380Z,76.07
2022-12-03T18:41:59.150Z,81.57
2022-12-03T18:44:26.067Z,81.50
2022-12-03T18:46:54.265Z,77.60
2022-12-03T18:49:21.678Z,80.80
2022-12-03T18:51:49.309Z,80.43
2022-12-03T18:54:17.240Z,87.77
2022-12-03T18:56:43.962Z,89.77
2022-12-03T18:59:11.385Z,89.37
2022-12-03T19:01:38.339Z,81.97
2022-12-03T19:04:05.179Z,78.10
2022-12-03T19:06:32.253Z,82.73
2022-12-03T19:08:59.085Z,83.70
2022-12-03T19:11:25.813Z,78.33
2022-12-03T19:13:52.632Z,81.77
2022-12-03T19:16:19.603Z,93.97
2022-12-03T19:18:46.348Z,82.90
2022-12-03T19:21:16.872Z,78.57
2022-12-03T19:24:04.294Z,85.57
2022-12-03T19:26:30.893Z,86.40
2022-12-03T19:28:57.583Z,75.77
2022-12-03T19:31:24.339Z,80.57
2022-12-03T19:33:51.760Z,83.63
2022-12-03T19:36:30.657Z,80.73
2022-12-03T19:38:59.525Z,85.23
2022-12-03T19:41:30.425Z,87.17
2022-12-03T19:43:58.014Z,88.93
2022-12-03T19:46:28.665Z,82.40
2022-12-03T19:48:55.580Z,83.83
2022-12-03T19:51:37.223Z,82.27
2022-12-03T19:54:06.954Z,80.20
2022-12-03T19:56:34.524Z,84.03
2022-12-03T19:59:01.442Z,80.80
2022-12-03T20:01:32.431Z,83.70
2022-12-03T20:04:01.275Z,85.23
2022-12-03T20:06:32.496Z,87.67
2022-12-03T20:09:11.228Z,78.63
2022-12-03T20:11:40.045Z,83.23
2022-12-03T20:14:10.978Z,78.13
2022-12-03T20:16:37.816Z,81.37
2022-12-03T20:19:07.664Z,83.50
2022-12-03T20:21:36.397Z,80.20
2022-12-03T20:24:03.688Z,78.13
2022-12-03T20:26:30.511Z,80.43
2022-12-03T20:28:58.114Z,76.67
2022-12-03T20:31:28.779Z,84.57
2022-12-03T20:33:59.800Z,86.90
2022-12-03T20:36:28.622Z,83.70
2022-12-03T20:38:57.717Z,80.53
2022-12-03T20:41:25.097Z,79.13
2022-12-03T20:43:53.259Z,83.13
2022-12-03T20:46:27.041Z,77.70
2022-12-03T20:48:55.168Z,79.40
2022-12-03T20:51:25.602Z,82.17
2022-12-03T20:53:52.987Z,78.27
2022-12-03T20:56:27.007Z,81.60
2022-12-03T20:58:54.043Z,86.20
2022-12-03T21:01:24.940Z,85.70
2022-12-03T21:03:54.161Z,90.27
2022-12-03T21:06:22.405Z,82.97
2022-12-03T21:08:49.215Z,81.67
2022-12-03T21:11:26.280Z,81.87
2022-12-03T21:13:54.551Z,80.83
2022-12-03T21:16:39.757Z,81.23
2022-12-03T21:19:12.049Z,79.17
2022-12-03T21:21:39.047Z,83.37
2022-12-03T21:24:06.210Z,78.70
2022-12-03T21:26:33.546Z,78.43
2022-12-03T21:29:00.328Z,72.03
2022-12-03T21:31:27.449Z,88.00
2022-12-03T21:33:56.252Z,84.03
2022-12-03T21:36:24.709Z,86.63
2022-12-03T21:38:52.096Z,78.83
2022-12-03T21:41:19.385Z,83.23
2022-12-03T21:43:46.503Z,91.93
2022-12-03T21:47:10.471Z,83.93
2022-12-03T21:49:03.956Z,90.03
2022-12-03T21:51:30.725Z,84.80
2022-12-03T21:53:57.467Z,83.93
2022-12-03T21:56:24.382Z,87.70
2022-12-03T21:58:51.175Z,85.73
2022-12-03T22:01:21.361Z,87.50
2022-12-03T22:03:49.114Z,83.40
2022-12-03T22:06:16.702Z,85.70
2022-12-03T22:08:44.078Z,82.03
2022-12-03T22:11:17.305Z,89.20
2022-12-03T22:13:45.715Z,79.27
2022-12-03T22:16:19.530Z,90.70
2022-12-03T22:18:46.833Z,84.30
2022-12-03T22:21:17.616Z,88.00
2022-12-03T22:23:45.370Z,93.07
2022-12-03T22:26:15.451Z,89.33
2022-12-03T22:28:47.492Z,76.47
2022-12-03T22:31:15.782Z,97.73
2022-12-03T22:33:45.512Z,87.47
2022-12-03T22:36:20.163Z,92.37
2022-12-03T22:38:48.819Z,92.90
2022-12-03T22:41:15.937Z,89.23
2022-12-03T22:43:43.293Z,88.03
2022-12-03T22:46:12.370Z,93.97
2022-12-03T22:48:41.729Z,89.43
2022-12-03T22:51:21.715Z,89.47
2022-12-03T22:53:57.598Z,87.57
2022-12-03T22:56:25.379Z,91.83
2022-12-03T22:58:52.391Z,90.97
2022-12-03T23:01:26.208Z,89.57
2022-12-03T23:03:53.372Z,85.43
2022-12-03T23:06:20.449Z,90.03
2022-12-03T23:08:47.736Z,94.57
2022-12-03T23:11:15.572Z,86.20
2022-12-03T23:13:42.743Z,89.13
2022-12-03T23:16:15.734Z,86.80
2022-12-03T23:18:42.693Z,89.13
2022-12-03T23:21:09.791Z,97.60
2022-12-03T23:23:36.465Z,89.33
2022-12-03T23:26:07.551Z,96.67
2022-12-03T23:28:37.601Z,97.00
2022-12-03T23:31:05.524Z,90.80
2022-12-03T23:33:37.984Z,84.30
2022-12-03T23:36:06.684Z,93.20
2022-12-03T23:38:33.614Z,89.07
2022-12-03T23:41:05.788Z,85.73
2022-12-03T23:43:32.509Z,96.37
2022-12-03T23:46:08.780Z,98.33
2022-12-03T23:48:36.030Z,87.43
2022-12-03T23:51:24.110Z,87.13
2022-12-03T23:53:53.357Z,92.23
2022-12-03T23:56:25.404Z,93.70
2022-12-03T23:58:52.206Z,90.00
